Time;durP1;ratioP1;P1;durP2;ratioP2;P2;SDS_P1;SDS_P2;PMS_P1;PMS_P2;Temp;Humidity;BMP_temperature;BMP_pressure;BME280_temperature;BME280_humidity;BME280_pressure;Samples;Min_cycle;Max_cycle;Signal;HPM_P1;HPM_P2
2022/05/03 00:01:18;;;;;;;9.63;8.73;;;11.30;88.80;;;10.01;81.96;97804.75;5095020;28;20459;-72
2022/05/03 00:03:52;;;;;;;8.77;8.07;;;11.10;89.60;;;9.96;82.21;97802.69;5075641;28;20542;-73
2022/05/03 00:06:30;;;;;;;9.10;8.30;;;11.10;90.10;;;10.01;82.08;97804.75;5093157;27;20983;-73
2022/05/03 00:09:04;;;;;;;9.10;8.30;;;11.10;90.30;;;10.08;82.24;97805.50;5073603;28;20468;-72
2022/05/03 00:11:34;;;;;;;10.53;9.00;;;11.10;90.40;;;10.10;82.10;97798.06;5073521;28;20447;-74
2022/05/03 00:14:12;;;;;;;8.83;8.13;;;11.20;90.10;;;10.05;81.83;97800.56;5082792;28;20563;-73
2022/05/03 00:16:39;;;;;;;8.93;7.87;;;11.10;90.30;;;10.04;81.78;97794.34;5074059;28;20538;-72
2022/05/03 00:19:07;;;;;;;9.60;8.57;;;11.10;90.20;;;9.68;82.89;97751.81;5081904;28;20455;-72
2022/05/03 00:21:36;;;;;;;10.40;8.20;;;11.10;90.50;;;10.15;82.26;97787.41;5078359;28;20443;-73
2022/05/03 00:24:05;;;;;;;8.40;7.70;;;11.20;90.20;;;10.18;81.52;97789.66;5074229;28;20578;-72
2022/05/03 00:26:33;;;;;;;10.40;8.10;;;11.20;90.00;;;10.16;81.58;97797.16;5083370;28;20464;-72
2022/05/03 00:29:00;;;;;;;9.20;8.30;;;11.20;89.50;;;10.00;82.02;97792.28;5085060;28;20987;-73
2022/05/03 00:31:30;;;;;;;10.40;8.70;;;11.20;90.10;;;9.92;82.28;97794.19;5088057;28;20563;-72
2022/05/03 00:33:59;;;;;;;9.30;8.50;;;11.10;90.50;;;9.85;82.92;97790.72;5088344;28;20530;-74
2022/05/03 00:36:26;;;;;;;9.10;8.20;;;11.00;90.80;;;9.94;82.87;97787.78;5090689;28;20468;-73
2022/05/03 00:38:53;;;;;;;9.63;8.73;;;11.00;90.40;;;9.97;81.50;97787.34;5075890;28;20444;-74
2022/05/03 00:41:34;;;;;;;8.70;8.00;;;11.10;90.00;;;9.91;82.18;97786.31;5075305;28;20564;-74
2022/05/03 00:44:55;;;;;;;10.03;8.10;;;11.10;90.00;;;9.80;83.37;97787.00;5075911;28;21002;-73
2022/05/03 00:47:05;;;;;;;9.43;8.43;;;11.00;90.50;;;9.61;82.77;97768.81;5075087;28;20522;-73
2022/05/03 00:49:48;;;;;;;8.50;7.90;;;10.80;90.80;;;9.67;83.47;97794.13;5080222;28;22229;-73
2022/05/03 00:52:24;;;;;;;9.03;8.33;;;10.70;91.30;;;9.68;83.45;97786.88;5072886;28;20966;-74
2022/05/03 00:55:10;;;;;;;9.23;7.00;;;10.80;91.20;;;9.47;84.28;97783.41;5068804;28;20440;-74
2022/05/03 00:57:46;;;;;;;8.13;7.43;;;10.60;91.50;;;9.38;84.74;97779.31;5078617;28;20456;-74
2022/05/03 01:00:15;;;;;;;10.60;8.43;;;10.50;92.00;;;9.33;85.46;97777.25;5073571;28;20467;-73
2022/05/03 01:03:10;;;;;;;9.20;8.40;;;10.50;92.60;;;9.39;84.85;97783.69;5075581;28;20488;-74
2022/05/03 01:05:47;;;;;;;9.60;8.73;;;10.50;92.50;;;9.30;85.24;97769.59;5073446;28;20534;-72
2022/05/03 01:08:30;;;;;;;9.67;8.77;;;10.50;92.30;;;9.14;85.35;97746.63;5072189;28;20497;-72
2022/05/03 01:11:22;;;;;;;9.20;8.40;;;10.40;92.80;;;9.23;85.54;97780.41;5083899;28;20506;-71
2022/05/03 01:13:59;;;;;;;9.60;8.70;;;10.40;92.80;;;8.98;87.06;97781.09;5072066;28;20544;-73
2022/05/03 01:16:33;;;;;;;10.40;9.40;;;10.20;93.20;;;8.97;87.49;97779.44;5075787;28;20456;-74
2022/05/03 01:19:23;;;;;;;9.87;9.03;;;10.20;94.30;;;8.91;88.01;97780.28;5075227;28;20455;-73
2022/05/03 01:22:10;;;;;;;12.80;10.10;;;10.10;94.60;;;8.77;87.89;97785.69;5071253;28;20459;-74
2022/05/03 01:25:13;;;;;;;11.47;10.43;;;10.00;95.00;;;8.91;87.32;97791.06;5075429;28;20447;-74
2022/05/03 01:28:00;;;;;;;11.40;10.20;;;10.10;94.60;;;8.74;87.03;97743.03;5073093;28;20458;-73
2022/05/03 01:30:30;;;;;;;11.07;9.60;;;10.10;95.10;;;9.14;85.97;97787.06;5073040;28;20470;-73
2022/05/03 01:33:07;;;;;;;11.53;10.43;;;10.20;93.40;;;9.08;85.79;97777.97;5071706;28;20485;-73
2022/05/03 01:35:39;;;;;;;11.53;10.37;;;10.20;93.20;;;9.06;86.80;97791.66;5071618;28;20457;-73
2022/05/03 01:38:28;;;;;;;17.00;10.67;;;10.20;93.50;;;9.02;86.43;97786.91;5078070;28;20538;-73
2022/05/03 01:41:29;;;;;;;11.90;10.70;;;10.20;93.50;;;8.96;86.33;97772.41;5095560;28;20787;-74
2022/05/03 01:44:21;;;;;;;11.70;10.30;;;10.10;93.50;;;8.98;86.71;97775.69;5080285;28;20489;-74
2022/05/03 01:46:55;;;;;;;11.20;10.10;;;10.10;93.70;;;8.79;87.39;97764.75;5075898;28;20453;-74
2022/05/03 01:52:47;;;;;;;11.80;9.83;;;9.90;95.40;;;8.59;88.80;97780.13;5078752;28;20521;-75
2022/05/03 01:55:58;;;;;;;10.20;9.30;;;9.80;95.90;;;8.47;90.06;97788.81;5075468;28;20466;-73
2022/05/03 01:58:37;;;;;;;10.43;9.43;;;9.70;97.60;;;8.72;88.29;97772.03;5066437;28;20458;-76
2022/05/03 02:01:06;;;;;;;11.50;9.30;;;9.80;96.80;;;8.55;87.33;97733.94;5077244;28;20456;-73
2022/05/03 02:03:47;;;;;;;10.27;9.37;;;9.90;95.80;;;8.81;87.71;97763.72;5091703;28;20554;-73
2022/05/03 02:06:16;;;;;;;11.20;9.30;;;10.00;94.40;;;8.93;86.63;97778.22;5071078;28;20519;-73
2022/05/03 02:08:58;;;;;;;10.07;9.17;;;10.10;93.90;;;8.87;87.34;97770.94;5080217;28;20465;-72
2022/05/03 02:11:39;;;;;;;9.67;8.77;;;10.10;93.80;;;8.62;87.34;97733.94;5079195;28;20479;-74
2022/05/03 02:17:04;;;;;;;11.03;9.90;;;10.00;94.30;;;8.81;87.50;97774.50;5073628;28;20467;-73
2022/05/03 02:19:52;;;;;;;11.03;9.87;;;10.00;94.30;;;8.85;87.33;97759.56;5078817;28;21141;-72
2022/05/03 02:22:54;;;;;;;9.77;8.80;;;10.00;94.40;;;8.78;87.64;97765.81;5073626;28;20542;-73
2022/05/03 02:25:37;;;;;;;10.97;9.87;;;10.00;94.30;;;8.96;87.07;97774.28;5065482;28;20466;-71
2022/05/03 02:28:15;;;;;;;12.50;9.87;;;10.10;94.00;;;8.93;87.21;97767.44;5088617;28;20468;-72
2022/05/03 02:30:45;;;;;;;10.40;9.40;;;10.10;93.60;;;8.93;87.27;97772.81;5070156;28;20557;-72
2022/05/03 02:33:21;;;;;;;11.77;8.93;;;10.10;93.80;;;8.95;86.47;97767.22;5071912;28;20459;-73
2022/05/03 02:35:56;;;;;;;14.40;9.00;;;10.10;93.80;;;8.81;87.53;97763.72;5073399;28;21150;-72
2022/05/03 02:38:31;;;;;;;11.30;10.07;;;10.10;93.70;;;8.74;88.57;97766.44;5078166;28;20482;-72
2022/05/03 02:41:03;;;;;;;11.00;9.90;;;10.00;94.70;;;8.60;89.12;97765.63;5073854;28;20461;-74
2022/05/03 02:43:31;;;;;;;15.90;11.20;;;9.80;96.40;;;8.65;88.79;97768.53;5071166;28;20452;-73
2022/05/03 02:46:14;;;;;;;11.73;10.40;;;9.80;96.70;;;8.79;88.28;97772.84;5070310;28;20456;-73
2022/05/03 02:48:49;;;;;;;13.40;9.17;;;9.90;96.00;;;8.94;87.53;97774.47;5083851;28;20458;-74
2022/05/03 02:51:23;;;;;;;10.90;9.60;;;10.10;94.80;;;8.98;87.50;97766.81;5071491;28;20484;-73
2022/05/03 02:53:56;;;;;;;10.07;9.17;;;10.10;94.40;;;9.19;86.51;97763.03;5073136;28;20546;-73
2022/05/03 02:56:30;;;;;;;10.50;9.50;;;10.20;93.70;;;9.27;86.17;97768.16;5075472;28;20451;-73
2022/05/03 02:59:12;;;;;;;9.63;8.63;;;10.40;92.80;;;9.31;85.96;97763.97;5070309;28;20451;-75
2022/05/03 03:01:52;;;;;;;10.20;9.17;;;10.40;92.80;;;9.40;85.16;97769.16;5075500;28;20468;-74
2022/05/03 03:04:36;;;;;;;13.23;9.90;;;10.50;92.30;;;9.49;84.14;97766.00;5072985;28;20877;-74
2022/05/03 03:07:06;;;;;;;10.03;9.10;;;10.60;91.80;;;9.49;84.15;97762.47;5070020;28;20981;-74
2022/05/03 03:09:44;;;;;;;10.47;9.47;;;10.60;91.30;;;9.38;85.09;97749.66;5077113;28;20567;-73
2022/05/03 03:12:23;;;;;;;9.53;8.47;;;10.60;91.60;;;9.38;84.85;97757.75;5079389;28;20570;-74
2022/05/03 03:14:58;;;;;;;9.00;8.10;;;10.60;91.60;;;9.32;85.40;97754.84;5082078;28;20516;-74
2022/05/03 03:17:36;;;;;;;10.87;8.37;;;10.50;92.00;;;9.41;84.04;97754.63;5064363;28;20435;-73
2022/05/03 03:20:09;;;;;;;10.00;9.20;;;10.50;91.70;;;9.24;84.53;97752.41;5080856;28;20444;-72
2022/05/03 03:22:43;;;;;;;10.70;9.70;;;10.40;91.80;;;9.24;84.80;97747.03;5080133;28;20495;-73
2022/05/03 03:25:14;;;;;;;8.53;7.83;;;10.40;92.20;;;9.32;84.18;97757.56;5078453;28;20916;-74
2022/05/03 03:27:44;;;;;;;9.70;8.90;;;10.50;91.90;;;9.18;85.18;97756.78;5076952;28;20551;-72
2022/05/03 03:30:14;;;;;;;9.20;8.40;;;10.40;92.40;;;9.30;84.29;97756.13;5074774;28;20879;-72
2022/05/03 03:32:46;;;;;;;9.60;8.80;;;10.40;92.10;;;9.31;83.97;97757.78;5076418;28;20449;-72
2022/05/03 03:35:15;;;;;;;9.73;8.53;;;10.50;91.60;;;9.37;83.74;97756.09;5080768;28;20449;-72
2022/05/03 03:37:46;;;;;;;9.10;8.30;;;10.50;91.40;;;9.26;85.09;97761.13;5082054;28;20455;-72
2022/05/03 03:40:14;;;;;;;9.73;8.73;;;10.50;91.90;;;9.33;85.10;97750.31;5075040;28;20939;-73
2022/05/03 03:42:43;;;;;;;9.40;8.60;;;10.50;91.70;;;9.31;85.38;97757.78;5072516;28;20536;-73
2022/05/03 03:45:12;;;;;;;8.83;8.03;;;10.50;91.90;;;9.30;85.15;97754.25;5081182;28;20904;-74
2022/05/03 03:47:40;;;;;;;9.63;8.83;;;10.50;91.80;;;9.30;84.87;97751.53;5083537;28;20547;-73
2022/05/03 03:50:09;;;;;;;8.70;8.00;;;10.50;91.90;;;9.17;86.40;97746.19;5084307;28;20463;-73
2022/05/03 03:52:39;;;;;;;9.53;8.53;;;10.40;92.50;;;9.24;85.70;97751.56;5099811;28;20544;-73
2022/05/03 03:55:09;;;;;;;10.07;9.27;;;10.40;92.70;;;9.22;85.55;97754.50;5075760;28;20465;-74
2022/05/03 03:57:37;;;;;;;10.00;8.90;;;10.40;92.80;;;9.30;85.86;97753.44;5072486;28;20887;-73
2022/05/03 04:00:08;;;;;;;9.57;8.70;;;10.40;92.90;;;9.41;85.32;97746.53;5076349;28;20845;-72
2022/05/03 04:02:36;;;;;;;9.70;8.90;;;10.40;92.90;;;9.46;84.77;97749.41;5074522;28;20961;-75
2022/05/03 04:05:04;;;;;;;10.47;9.60;;;10.50;92.30;;;9.47;84.61;97745.66;5078874;28;20896;-71
2022/05/03 04:07:31;;;;;;;9.83;8.93;;;10.60;92.50;;;9.57;83.96;97751.44;5076217;28;20455;-73
2022/05/03 04:09:58;;;;;;;10.50;9.50;;;10.60;91.70;;;9.52;83.62;97758.50;5086240;28;20467;-73
2022/05/03 04:12:27;;;;;;;9.60;8.77;;;10.60;91.20;;;9.30;85.39;97761.53;5080412;28;20482;-72
2022/05/03 04:14:53;;;;;;;9.90;9.10;;;10.50;91.70;;;9.37;85.04;97754.22;5088035;28;20466;-74
2022/05/03 04:17:20;;;;;;;9.37;8.63;;;10.50;91.90;;;9.33;85.74;97753.84;5083578;28;20451;-76
2022/05/03 04:19:48;;;;;;;9.57;8.77;;;10.50;92.20;;;9.45;84.95;97756.69;5079981;28;21293;-74
2022/05/03 04:22:26;;;;;;;10.80;9.80;;;10.60;92.50;;;9.42;84.77;97758.97;5077345;28;20484;-76
2022/05/03 04:24:53;;;;;;;10.57;9.67;;;10.60;92.10;;;9.53;84.83;97755.59;5079516;28;20887;-74
2022/05/03 04:27:21;;;;;;;11.00;10.10;;;10.70;92.00;;;9.49;85.35;97755.19;5076482;28;21341;-73
2022/05/03 04:29:50;;;;;;;14.00;10.43;;;10.70;92.10;;;9.61;84.73;97760.75;5080512;28;20557;-73
2022/05/03 04:32:17;;;;;;;9.60;8.80;;;10.70;92.00;;;9.62;84.70;97765.09;5077821;28;20519;-74
2022/05/03 04:34:45;;;;;;;10.70;9.50;;;10.70;92.00;;;9.69;85.26;97770.44;5081579;28;20468;-74
2022/05/03 04:37:12;;;;;;;9.93;8.83;;;10.80;92.40;;;9.82;85.09;97771.44;5079735;28;20500;-73
2022/05/03 04:39:39;;;;;;;10.53;9.53;;;10.80;93.00;;;10.24;83.86;97773.66;5074006;28;20470;-74
2022/05/03 04:42:08;;;;;;;10.33;9.47;;;11.30;91.60;;;10.68;80.52;97761.03;5065705;28;20522;-81
2022/05/03 04:44:35;;;;;;;10.93;9.70;;;11.90;87.80;;;11.45;77.76;97748.97;5075205;28;20490;-72
2022/05/03 04:47:04;;;;;;;10.40;9.50;;;12.70;84.80;;;11.96;73.89;97773.06;5077623;28;20450;-78
2022/05/03 04:49:31;;;;;;;9.93;9.10;;;13.10;81.80;;;11.96;73.67;97772.25;5086596;28;20461;-77
2022/05/03 04:51:58;;;;;;;8.90;8.00;;;13.40;80.70;;;12.09;73.37;97777.50;5082652;28;20540;-78
2022/05/03 04:54:25;;;;;;;8.73;7.93;;;13.50;80.20;;;12.50;71.64;97783.09;5073709;28;20457;-84
2022/05/03 04:56:58;;;;;;;10.83;8.87;;;14.10;78.60;;;13.15;68.88;97780.53;5077060;28;20527;-80
2022/05/03 04:59:25;;;;;;;9.43;8.63;;;14.40;77.80;;;13.52;67.57;97779.41;5082970;28;20449;-78
2022/05/03 05:01:52;;;;;;;8.63;7.93;;;14.90;76.70;;;13.43;67.72;97776.22;5100370;27;20449;-81
2022/05/03 05:04:21;;;;;;;8.90;8.17;;;14.80;76.60;;;13.87;66.03;97787.41;5077857;28;20540;-80
2022/05/03 05:06:48;;;;;;;9.27;8.50;;;15.20;75.40;;;14.31;63.99;97775.16;5087885;28;20499;-78
2022/05/03 05:09:15;;;;;;;9.20;8.33;;;15.70;74.10;;;14.05;64.68;97782.88;5080887;28;20453;-79
2022/05/03 05:11:41;;;;;;;8.90;8.10;;;16.00;72.70;;;14.52;63.72;97780.94;5076552;28;20477;-80
2022/05/03 05:14:08;;;;;;;8.67;7.97;;;16.00;72.90;;;14.53;63.85;97788.03;5079873;28;20533;-78
2022/05/03 05:16:36;;;;;;;8.23;7.43;;;16.20;72.40;;;15.26;61.17;97784.50;5078795;28;20690;-78
2022/05/03 05:19:03;;;;;;;9.30;8.50;;;16.60;71.30;;;14.60;62.58;97788.66;5080671;28;20924;-77
2022/05/03 05:21:31;;;;;;;8.90;8.00;;;16.30;71.20;;;15.01;61.21;97786.63;5084104;28;20494;-80
2022/05/03 05:24:00;;;;;;;9.17;8.40;;;16.60;70.60;;;14.67;61.35;97740.41;5081037;28;20462;-78
2022/05/03 05:26:27;;;;;;;8.73;8.03;;;16.70;70.10;;;15.38;59.86;97781.66;5074816;28;20466;-76
2022/05/03 05:28:54;;;;;;;8.63;7.93;;;17.00;69.40;;;15.25;60.11;97783.69;5081965;28;20442;-78
2022/05/03 05:31:21;;;;;;;9.37;8.43;;;17.00;68.90;;;15.38;59.93;97784.38;5081500;28;20466;-79
2022/05/03 05:33:48;;;;;;;9.27;8.47;;;17.00;68.70;;;14.66;61.48;97782.25;5073555;28;20530;-78
2022/05/03 05:36:14;;;;;;;9.40;8.40;;;16.70;68.60;;;14.90;60.96;97789.44;5083216;28;20935;-76
2022/05/03 05:38:43;;;;;;;10.17;9.27;;;16.30;69.30;;;15.40;60.03;97787.69;5086138;28;20483;-76
2022/05/03 05:41:14;;;;;;;9.67;8.77;;;16.50;69.80;;;16.06;58.61;97786.00;5083125;28;20467;-77
2022/05/03 05:43:42;;;;;;;9.90;8.83;;;17.30;68.80;;;15.66;59.21;97786.09;5084483;28;20464;-77
2022/05/03 05:46:10;;;;;;;9.53;8.63;;;17.20;67.90;;;15.21;60.28;97796.13;5080560;28;20450;-75
2022/05/03 05:48:39;;;;;;;10.47;8.63;;;16.80;68.40;;;15.07;61.00;97792.13;5083028;28;20571;-77
2022/05/03 05:51:06;;;;;;;12.30;8.47;;;16.50;68.50;;;14.30;62.94;97789.81;5075605;28;20466;-77
2022/05/03 05:53:32;;;;;;;9.00;8.10;;;15.90;69.70;;;13.91;64.99;97795.09;5079315;28;20458;-79
2022/05/03 05:56:02;;;;;;;10.60;9.57;;;15.30;71.00;;;13.34;66.33;97811.03;5083645;28;20550;-78
2022/05/03 05:58:30;;;;;;;8.87;8.17;;;14.70;71.80;;;13.13;66.50;97798.94;5087117;27;20453;-80
2022/05/03 06:00:57;;;;;;;9.33;7.80;;;14.40;72.10;;;12.78;67.29;97768.06;5073626;28;20926;-76
2022/05/03 06:03:27;;;;;;;9.40;8.50;;;14.30;73.20;;;12.99;67.98;97803.75;5065973;28;20449;-79
2022/05/03 06:05:54;;;;;;;9.03;8.23;;;14.10;73.80;;;12.84;69.05;97812.38;5076040;28;20441;-76
2022/05/03 06:08:21;;;;;;;8.50;7.80;;;14.00;74.60;;;12.76;68.94;97821.69;5079887;28;20947;-77
2022/05/03 06:10:49;;;;;;;14.63;10.13;;;14.00;74.90;;;12.79;69.42;97804.94;5082399;28;20461;-77
2022/05/03 06:13:17;;;;;;;9.83;8.93;;;13.90;75.40;;;12.96;68.28;97812.38;5078768;28;20460;-78
2022/05/03 06:15:44;;;;;;;9.57;8.67;;;14.00;75.10;;;13.17;67.57;97805.50;5079782;28;20794;-78
2022/05/03 06:18:13;;;;;;;9.47;8.67;;;14.20;75.10;;;13.31;67.45;97806.91;5081059;28;20526;-79
2022/05/03 06:20:40;;;;;;;8.70;7.90;;;14.20;75.00;;;13.38;67.08;97816.81;5078463;28;20482;-77
2022/05/03 06:23:07;;;;;;;8.10;7.47;;;14.30;74.80;;;13.41;67.14;97802.75;5080813;28;20450;-76
2022/05/03 06:25:35;;;;;;;9.50;8.57;;;14.30;75.00;;;13.20;67.41;97815.09;5078385;28;20459;-76
2022/05/03 06:28:02;;;;;;;8.40;7.80;;;14.20;74.70;;;13.06;68.24;97817.19;5077133;28;20454;-78
2022/05/03 06:30:32;;;;;;;8.67;7.93;;;14.20;75.30;;;13.20;67.65;97815.09;5059579;28;20477;-78
2022/05/03 06:32:58;;;;;;;10.93;8.10;;;14.20;75.00;;;12.87;68.28;97810.00;5063326;28;20477;-76
2022/05/03 06:35:28;;;;;;;9.40;7.90;;;14.10;74.90;;;12.82;68.62;97793.63;5075439;28;20478;-80
2022/05/03 06:37:55;;;;;;;9.57;8.87;;;13.90;75.50;;;12.92;67.97;97776.75;5079297;28;20482;-81
2022/05/03 06:40:22;;;;;;;10.20;9.30;;;14.10;75.60;;;13.18;67.81;97823.44;5071445;28;20460;-80
2022/05/03 06:42:49;;;;;;;12.40;8.97;;;14.00;75.30;;;13.23;67.30;97820.84;5074386;28;20849;-81
2022/05/03 06:45:16;;;;;;;9.03;8.20;;;14.30;75.10;;;13.12;67.23;97824.41;5065181;28;21029;-80
2022/05/03 06:47:44;;;;;;;8.83;8.13;;;14.20;74.60;;;13.48;65.82;97817.06;5074716;28;21086;-80
2022/05/03 06:50:11;;;;;;;9.73;8.80;;;14.30;74.50;;;13.43;66.06;97825.06;5067891;28;20998;-79
2022/05/03 06:52:38;;;;;;;9.17;8.37;;;14.40;74.60;;;13.14;67.53;97833.94;5073559;28;20472;-78
2022/05/03 06:55:06;;;;;;;9.83;9.00;;;14.30;74.60;;;13.26;68.09;97831.19;5066021;28;20455;-76
2022/05/03 06:57:33;;;;;;;8.90;8.03;;;14.20;75.70;;;12.84;69.74;97832.16;5070893;28;20457;-77
2022/05/03 07:00:02;;;;;;;9.70;8.83;;;14.10;75.60;;;13.35;67.31;97822.72;5071724;28;20454;-76
2022/05/03 07:02:31;;;;;;;9.13;8.43;;;14.30;75.30;;;13.44;67.06;97815.91;5071957;28;20531;-76
2022/05/03 07:05:00;;;;;;;9.87;9.07;;;14.50;74.90;;;13.67;65.66;97819.59;5078650;28;20458;-77
2022/05/03 07:07:27;;;;;;;9.17;8.30;;;14.60;74.40;;;13.95;65.44;97820.69;5079666;28;20466;-77
2022/05/03 07:09:54;;;;;;;10.10;9.10;;;14.80;74.60;;;14.14;64.81;97818.63;5081437;28;21008;-79
2022/05/03 07:12:21;;;;;;;10.10;8.60;;;15.10;74.10;;;13.90;64.78;97807.03;5068661;28;20486;-78
2022/05/03 07:14:48;;;;;;;9.67;8.77;;;15.00;73.70;;;13.76;65.31;97822.75;5052105;28;20455;-77
2022/05/03 07:22:45;;;;;;;10.00;8.97;;;15.00;73.30;;;13.69;66.30;97822.91;5065198;28;20450;-76
2022/05/03 07:22:52;;;;;;;8.03;7.40;;;15.00;74.10;;;14.22;63.31;97828.25;5074310;28;20493;-76
2022/05/03 07:25:19;;;;;;;8.90;8.00;;;15.20;72.70;;;14.58;63.22;97826.16;5065285;28;20465;-77
2022/05/03 07:27:47;;;;;;;8.53;7.67;;;15.40;72.80;;;14.17;63.94;97824.38;5069777;28;20580;-77
2022/05/03 07:30:15;;;;;;;7.83;7.23;;;15.20;72.60;;;14.66;62.11;97833.91;5069269;28;20450;-76
2022/05/03 07:32:43;;;;;;;7.43;6.83;;;15.40;72.40;;;14.54;62.50;97827.72;5050890;28;20573;-77
2022/05/03 07:35:12;;;;;;;7.50;6.90;;;15.50;71.90;;;14.79;61.93;97829.25;5065949;28;20594;-76
2022/05/03 07:37:40;;;;;;;8.87;6.97;;;15.60;71.80;;;14.80;61.25;97830.91;5077715;28;20455;-76
2022/05/03 07:40:10;;;;;;;7.13;6.57;;;15.70;71.30;;;14.92;61.32;97823.47;5081881;28;20463;-76
2022/05/03 07:42:37;;;;;;;7.10;6.50;;;15.80;71.20;;;15.47;59.55;97826.41;5076646;28;21651;-74
2022/05/03 07:45:06;;;;;;;7.57;6.87;;;16.10;71.10;;;15.44;59.72;97826.94;5075961;28;20489;-75
2022/05/03 07:47:34;;;;;;;7.47;6.80;;;16.20;70.50;;;15.68;58.44;97821.22;5074318;28;20903;-75
2022/05/03 07:50:01;;;;;;;8.20;7.40;;;16.50;69.90;;;15.40;58.79;97839.41;5093759;27;20515;-75
2022/05/03 07:52:29;;;;;;;7.63;7.03;;;16.40;69.30;;;14.94;59.79;97843.09;5080840;28;20560;-77
2022/05/03 07:54:57;;;;;;;7.23;6.63;;;16.20;69.20;;;14.81;60.75;97846.97;5095307;27;20673;-76
2022/05/03 07:57:25;;;;;;;7.50;6.90;;;16.00;69.70;;;14.93;60.55;97846.88;5078842;28;20569;-74
2022/05/03 07:59:54;;;;;;;8.43;7.43;;;15.90;69.70;;;14.80;60.86;97839.06;5084376;28;20513;-75
2022/05/03 08:02:23;;;;;;;7.70;7.00;;;16.00;69.80;;;15.26;59.52;97850.66;5074532;28;20953;-75
2022/05/03 08:04:50;;;;;;;7.27;6.60;;;16.10;69.20;;;15.35;58.79;97842.03;5068913;28;20564;-75
2022/05/03 08:07:18;;;;;;;7.20;6.27;;;16.20;69.00;;;15.39;58.78;97841.28;5076064;28;21014;-75
2022/05/03 08:09:47;;;;;;;7.00;6.50;;;16.40;68.70;;;15.96;56.93;97850.22;5076021;28;20455;-77
2022/05/03 08:12:14;;;;;;;7.77;6.23;;;16.60;68.00;;;15.41;57.84;97851.94;5074855;28;20476;-75
2022/05/03 08:14:41;;;;;;;6.70;6.17;;;16.60;67.30;;;15.90;56.84;97847.69;5088357;28;20455;-75
2022/05/03 08:17:09;;;;;;;6.33;5.73;;;16.60;67.40;;;15.66;57.21;97840.56;5069154;28;20523;-75
2022/05/03 08:19:37;;;;;;;7.00;6.40;;;16.70;67.30;;;15.77;56.64;97848.84;5064802;28;20459;-76
2022/05/03 08:22:04;;;;;;;8.60;5.87;;;16.70;66.90;;;15.73;56.57;97843.91;5084218;28;20958;-75
2022/05/03 08:24:32;;;;;;;6.43;5.93;;;16.80;66.60;;;16.47;54.59;97840.09;5067341;28;20450;-76
2022/05/03 08:27:01;;;;;;;7.13;6.60;;;17.10;66.40;;;17.20;53.18;97853.25;5069172;28;22583;-75
2022/05/03 08:29:29;;;;;;;6.53;5.90;;;17.60;66.00;;;17.77;51.39;97844.56;5071603;28;20593;-76
2022/05/03 08:31:57;;;;;;;19.17;7.07;;;18.20;64.70;;;17.99;51.32;97858.84;5088684;28;20484;-76
2022/05/03 08:34:24;;;;;;;7.00;6.40;;;18.60;64.00;;;18.19;50.39;97843.63;5070876;28;21060;-77
2022/05/03 08:42:30;;;;;;;6.83;6.23;;;18.40;62.50;;;17.91;50.72;97856.63;5070015;28;20517;-76
2022/05/03 08:45:00;;;;;;;5.83;5.43;;;18.50;62.70;;;18.01;50.21;97844.09;5066076;28;20802;-76
2022/05/03 08:47:29;;;;;;;6.30;5.70;;;18.80;62.40;;;16.84;53.38;97855.69;5073074;28;20459;-74
2022/05/03 08:50:03;;;;;;;6.60;5.90;;;18.40;62.00;;;18.62;49.66;97848.91;5070927;28;20569;-75
2022/05/03 08:52:34;;;;;;;6.73;6.10;;;19.00;61.90;;;19.47;47.74;97841.16;5077097;28;20826;-76
2022/05/03 08:55:02;;;;;;;6.53;5.93;;;19.80;61.70;;;19.70;46.33;97843.56;5065946;28;20732;-75
2022/05/03 08:57:30;;;;;;;9.60;5.80;;;20.30;59.80;;;19.61;46.00;97818.66;5061741;28;20505;-74
2022/05/03 08:59:58;;;;;;;5.93;5.43;;;20.50;58.90;;;20.24;44.77;97841.97;5065516;28;20484;-76
2022/05/03 09:02:25;;;;;;;6.93;6.33;;;21.00;58.10;;;20.14;44.82;97840.09;5072136;28;20527;-76
2022/05/03 09:04:52;;;;;;;5.80;5.40;;;20.80;57.50;;;20.37;44.02;97843.28;5079078;28;20557;-79
2022/05/03 09:07:22;;;;;;;5.40;5.00;;;21.20;57.30;;;20.03;44.49;97847.56;5081637;28;20521;-76
2022/05/03 09:09:50;;;;;;;7.60;5.17;;;21.00;56.40;;;19.06;46.28;97836.59;5076302;28;20463;-75
2022/05/03 09:12:26;;;;;;;5.70;5.30;;;20.50;56.60;;;18.69;47.67;97827.56;5098276;28;20472;-76
2022/05/03 09:14:57;;;;;;;5.97;5.47;;;19.80;57.30;;;20.03;45.88;97842.09;5078234;28;20459;-76
2022/05/03 09:17:41;;;;;;;5.67;5.17;;;20.40;58.00;;;20.45;44.59;97847.34;5078402;28;20441;-78
2022/05/03 09:25:55;;;;;;;7.63;5.43;;;21.60;56.30;;;19.89;45.28;97836.38;5071654;28;20472;-77
2022/05/03 09:28:24;;;;;;;5.80;5.37;;;21.30;55.80;;;20.11;45.11;97843.41;5079549;28;20444;-76
2022/05/03 09:30:53;;;;;;;5.27;4.87;;;21.20;56.10;;;20.15;45.86;97840.94;5078998;28;20542;-77
2022/05/03 09:33:23;;;;;;;5.90;5.40;;;21.00;56.60;;;20.25;45.49;97838.16;5076900;28;20459;-76
2022/05/03 09:35:52;;;;;;;5.90;5.40;;;21.30;56.40;;;19.16;47.23;97835.75;5076890;28;20456;-76
2022/05/03 09:38:19;;;;;;;6.53;5.40;;;20.80;56.20;;;19.77;46.45;97828.47;5077046;28;20498;-75
2022/05/03 09:40:47;;;;;;;6.23;5.63;;;20.60;56.80;;;20.69;44.79;97841.97;5076823;28;20761;-77
2022/05/03 09:43:16;;;;;;;5.50;5.10;;;21.10;56.70;;;20.77;44.19;97843.28;5070429;28;20819;-77
2022/05/03 09:45:43;;;;;;;5.70;5.30;;;21.50;56.10;;;20.45;44.32;97797.97;5067803;28;20451;-76
2022/05/03 09:48:12;;;;;;;7.83;5.60;;;21.60;55.80;;;20.62;44.00;97795.63;5076771;28;20463;-75
2022/05/03 09:50:43;;;;;;;5.73;5.30;;;21.70;55.90;;;20.33;45.47;97840.28;5071372;28;20451;-76
2022/05/03 09:53:17;;;;;;;6.03;5.63;;;21.50;56.00;;;20.45;44.83;97826.19;5082178;28;20482;-75
2022/05/03 09:55:47;;;;;;;6.70;6.10;;;21.40;56.00;;;20.61;44.77;97839.81;5077915;28;20447;-74
2022/05/03 09:58:17;;;;;;;6.73;6.13;;;21.40;55.90;;;19.26;47.75;97824.00;5086290;28;20467;-74
2022/05/03 10:00:47;;;;;;;7.40;6.70;;;20.80;56.20;;;20.10;46.67;97837.13;5079204;28;20694;-76
2022/05/03 10:03:16;;;;;;;6.77;6.17;;;21.00;56.90;;;19.73;46.69;97830.13;5074750;28;20460;-76
2022/05/03 10:05:45;;;;;;;6.37;5.90;;;20.80;56.30;;;19.88;46.60;97832.00;5069126;28;20462;-74
2022/05/03 10:08:16;;;;;;;6.53;6.03;;;20.80;56.50;;;20.20;46.35;97835.41;5070856;28;20448;-75
2022/05/03 10:10:56;;;;;;;7.40;6.80;;;21.00;56.70;;;20.17;45.59;97827.75;5069034;28;20472;-75
2022/05/03 10:13:23;;;;;;;7.23;6.53;;;21.10;55.90;;;20.19;46.25;97826.38;5072935;28;20572;-75
2022/05/03 10:21:34;;;;;;;7.73;7.00;;;20.60;56.50;;;19.22;48.96;97823.72;5072348;28;20451;-77
2022/05/03 10:24:06;;;;;;;6.67;6.17;;;20.20;57.30;;;19.22;48.87;97817.41;5069828;28;20614;-77
2022/05/03 10:26:58;;;;;;;9.43;6.80;;;20.20;57.70;;;19.19;48.73;97807.84;5078783;28;20861;-76
2022/05/03 10:29:27;;;;;;;7.13;6.63;;;20.40;57.20;;;19.35;48.72;97811.34;5089487;28;20483;-76
2022/05/03 10:32:02;;;;;;;8.20;7.50;;;20.30;57.70;;;19.06;49.06;97792.00;5085848;28;20465;-75
2022/05/03 10:34:56;;;;;;;8.33;7.43;;;20.10;57.50;;;19.62;48.17;97793.75;5072471;28;20512;-76
2022/05/03 10:38:08;;;;;;;7.67;7.07;;;20.30;57.60;;;19.34;47.76;97806.97;5075213;28;20495;-76
2022/05/03 10:40:41;;;;;;;7.87;7.17;;;20.20;57.30;;;19.07;49.05;97794.44;5080891;28;20473;-76
2022/05/03 10:43:11;;;;;;;8.60;6.73;;;20.10;57.40;;;19.40;48.99;97797.63;5079111;28;20452;-75
2022/05/03 10:45:54;;;;;;;7.60;6.90;;;20.30;57.70;;;19.50;48.84;97790.50;5081579;28;20464;-77
2022/05/03 10:48:27;;;;;;;7.43;6.93;;;20.30;57.90;;;19.56;48.07;97780.34;5079912;28;20537;-76
2022/05/03 10:51:00;;;;;;;6.50;6.00;;;20.50;57.80;;;19.71;47.49;97784.91;5075049;28;20551;-76
2022/05/03 10:53:30;;;;;;;6.57;5.97;;;20.60;57.00;;;19.60;46.95;97781.41;5076320;28;20494;-75
2022/05/03 10:56:18;;;;;;;6.90;6.20;;;20.60;56.40;;;19.45;48.40;97788.59;5074637;28;20885;-77
2022/05/03 10:59:02;;;;;;;6.90;6.30;;;20.40;57.00;;;19.33;48.24;97785.34;5076478;28;20539;-76
2022/05/03 11:01:30;;;;;;;6.60;6.10;;;20.30;57.10;;;19.35;47.51;97775.75;5078607;28;20880;-77
2022/05/03 11:04:13;;;;;;;6.77;6.27;;;20.30;56.60;;;19.04;48.46;97777.75;5070903;28;20462;-78
2022/05/03 11:06:47;;;;;;;7.47;6.87;;;20.20;56.50;;;19.61;47.10;97769.34;5079020;28;20444;-76